Ana Sayfa
METAR-TAF:

METAR-TAF

Havaalanları :

Bağdat Uluslararası Havaalanı

Bağdat, Irak

Enlem: 33-15-45N, Boylam: 44-14-04E, yükseklik: 35 m

Güncel hava durumu gözlemi

Rapor saat 02:00 UTC de 30 dakika önce yapıldı.
Rüzgar batı/kuzeybatıdan 3 kt
Sıcaklık 9°C
Nem 100%
Basınç 1021 hPa
Görüş mesafesi: 0800 m
sis

METAR: ORBI 110200Z 30003KT 0800 R33R/P2000N FG NSC 09/09 Q1021 NOSIG

Saat: 05:30 (02:30 UTC)

Tahmin

Rapor saat 22:00 UTC de 4 saat ve 30 dakika önce yapıldı.
Ayın 11'si saat 00 UTC'den ayın 11'si saat 24 UTC'ye kadar geçerli Tahmin
Rüzgar batı/kuzeybatıdan 3 kt
Görüş mesafesi: 7000 m
Dönüşüyor
ayın 11'si saat 14 UTC'den ayın 11'si saat 16 UTC'ye kadar
Rüzgar güneydoğudan 6 kt
Görüş mesafesi 10 km veya daha fazla
1500 m altında bulut yok ve kümülonimbus yok

TAF: ORBI 102200Z 1100/1124 30003KT 7000 NSC BECMG 1114/1116 14006KT CAVOK

4.000'den fazla havaalanı için hava durumu gözlemleri ve tahminleri (METAR ve TAF raporları).

Kullanılabilir istasyonlar harita üzerinde sarı ve kırmızı noktalarla gösterilir.

İstasyonun adını görmek için fareyi noktanın üzerinde gezdirin.

Sonrasında hava gözlem ve tahminlerini görmek için tıklayın.

Haritayı değiştirmek için: yaklaştırmak için siyah artı işaretli yeşil düğmeye ve uzaklaştırmak için de eksi işaretli düğmeye hızla tıklayın; bitişik haritalar için yeşil okları kullanın.


METAR-TAF: